Time;durP1;ratioP1;P1;durP2;ratioP2;P2;SDS_P1;SDS_P2;PMS_P1;PMS_P2;Temp;Humidity;BMP_temperature;BMP_pressure;BME280_temperature;BME280_humidity;BME280_pressure;Samples;Min_cycle;Max_cycle;Signal;HPM_P1;HPM_P2
2022/01/22 00:00:11;;;;;;;0.10;0.10;;;5.30;99.90;;;;;;5068187;28;20624;-69
2022/01/22 00:02:40;;;;;;;0.10;0.10;;;5.30;99.90;;;;;;5069585;28;20733;-69
2022/01/22 00:05:10;;;;;;;0.10;0.10;;;5.40;99.90;;;;;;5072155;28;20604;-70
2022/01/22 00:07:37;;;;;;;0.10;0.10;;;5.40;99.90;;;;;;5067236;28;20635;-69
2022/01/22 00:10:07;;;;;;;0.10;0.10;;;5.40;99.90;;;;;;5063984;28;20624;-70
2022/01/22 00:13:06;;;;;;;0.10;0.10;;;5.40;99.90;;;;;;5065623;28;20680;-69
2022/01/22 00:15:33;;;;;;;0.00;0.00;;;5.40;99.90;;;;;;5062469;28;20654;-70
2022/01/22 00:18:02;;;;;;;0.10;0.10;;;5.40;99.90;;;;;;5066329;28;20678;-70
2022/01/22 00:20:29;;;;;;;0.00;0.00;;;5.40;99.90;;;;;;5065271;28;20616;-70
2022/01/22 00:22:56;;;;;;;0.10;0.10;;;5.40;99.90;;;;;;5070030;28;20708;-69
2022/01/22 00:25:24;;;;;;;0.10;0.10;;;5.40;99.90;;;;;;5062364;28;20635;-68
2022/01/22 00:27:52;;;;;;;0.10;0.10;;;5.50;99.90;;;;;;5068963;28;20611;-70
2022/01/22 00:30:21;;;;;;;0.10;0.10;;;5.50;99.90;;;;;;5071086;28;20647;-69
2022/01/22 00:32:48;;;;;;;0.10;0.10;;;5.50;99.90;;;;;;5070464;28;20802;-67
2022/01/22 00:35:17;;;;;;;0.10;0.10;;;5.50;99.90;;;;;;5066729;28;20621;-67
2022/01/22 00:37:47;;;;;;;0.10;0.10;;;5.50;99.90;;;;;;5066524;28;20613;-67
2022/01/22 00:40:15;;;;;;;0.10;0.10;;;5.50;99.90;;;;;;5064708;28;21066;-67
2022/01/22 00:42:43;;;;;;;0.10;0.10;;;5.50;99.90;;;;;;5069917;28;21248;-67
2022/01/22 00:45:11;;;;;;;0.10;0.10;;;5.50;99.90;;;;;;5065662;28;20630;-68
2022/01/22 00:47:39;;;;;;;0.10;0.10;;;5.50;99.90;;;;;;5065190;28;20629;-67
2022/01/22 00:50:11;;;;;;;0.10;0.10;;;5.60;99.90;;;;;;5069017;28;20599;-68
2022/01/22 00:52:40;;;;;;;0.10;0.10;;;5.60;99.90;;;;;;5063590;28;20671;-70
2022/01/22 00:55:08;;;;;;;0.20;0.20;;;5.60;99.90;;;;;;5068033;28;20620;-67
2022/01/22 00:57:35;;;;;;;0.10;0.10;;;5.60;99.90;;;;;;5066068;28;20661;-67
2022/01/22 01:00:05;;;;;;;0.10;0.10;;;5.60;99.90;;;;;;5066521;28;20711;-67
2022/01/22 01:02:33;;;;;;;0.10;0.10;;;5.60;99.90;;;;;;5064224;28;20652;-67
2022/01/22 01:05:00;;;;;;;0.10;0.10;;;5.60;99.90;;;;;;5068326;28;20616;-67
2022/01/22 01:07:27;;;;;;;0.10;0.10;;;5.70;99.90;;;;;;5065512;28;21200;-69
2022/01/22 01:09:55;;;;;;;0.10;0.10;;;5.70;99.90;;;;;;5065779;28;21204;-67
2022/01/22 01:12:23;;;;;;;0.10;0.10;;;5.70;99.90;;;;;;5066385;28;20688;-68
2022/01/22 01:15:05;;;;;;;0.10;0.10;;;5.70;99.90;;;;;;5063983;28;20714;-67
2022/01/22 01:17:57;;;;;;;0.10;0.10;;;5.70;99.90;;;;;;5061508;28;20631;-67
2022/01/22 01:34:23;;;;;;;0.10;0.10;;;5.70;99.90;;;;;;4985815;28;20659;-69
2022/01/22 01:36:51;;;;;;;0.10;0.10;;;5.70;99.90;;;;;;5029633;28;20632;-70
2022/01/22 01:39:24;;;;;;;0.10;0.10;;;5.70;99.90;;;;;;5064591;28;20643;-70
2022/01/22 01:41:56;;;;;;;0.10;0.10;;;5.70;99.90;;;;;;5068632;28;20613;-69
2022/01/22 01:44:26;;;;;;;0.10;0.10;;;5.70;99.90;;;;;;5072478;28;20649;-69
2022/01/22 01:46:57;;;;;;;0.10;0.10;;;5.70;99.90;;;;;;5062511;28;20649;-69
2022/01/22 01:49:26;;;;;;;0.10;0.10;;;5.70;99.90;;;;;;5066003;28;20706;-70
2022/01/22 01:51:57;;;;;;;0.10;0.10;;;5.80;99.90;;;;;;5067351;28;20666;-69
2022/01/22 01:54:30;;;;;;;0.10;0.10;;;5.70;99.90;;;;;;5057677;28;20651;-69
2022/01/22 01:59:46;;;;;;;0.00;0.00;;;;;;;;;;5068552;28;20624;-72
2022/01/22 02:02:19;;;;;;;0.10;0.10;;;;;;;;;;5060013;28;21263;-70
2022/01/22 02:04:47;;;;;;;0.00;0.00;;;;;;;;;;5068950;28;20629;-69
2022/01/22 02:07:14;;;;;;;0.10;0.10;;;;;;;;;;5065394;28;20640;-69
2022/01/22 02:09:47;;;;;;;0.10;0.10;;;;;;;;;;5064108;28;20625;-68
2022/01/22 02:12:25;;;;;;;0.10;0.10;;;;;;;;;;5066058;28;20663;-66
2022/01/22 02:23:35;;;;;;;0.10;0.10;;;;;;;;;;5068429;28;20640;-69
2022/01/22 02:26:02;;;;;;;0.10;0.10;;;;;;;;;;5071785;28;21203;-69
2022/01/22 02:28:33;;;;;;;0.10;0.10;;;;;;;;;;5071312;28;20632;-68
2022/01/22 02:31:05;;;;;;;0.10;0.10;;;;;;;;;;5072869;28;20622;-69
2022/01/22 02:33:58;;;;;;;0.10;0.10;;;;;;;;;;5072053;28;20684;-70
2022/01/22 02:36:32;;;;;;;0.10;0.10;;;;;;;;;;5061417;28;20650;-67
2022/01/22 02:39:07;;;;;;;0.10;0.10;;;;;;;;;;5066700;28;20619;-67
2022/01/22 02:41:37;;;;;;;0.10;0.10;;;;;;;;;;5068207;28;20620;-68
2022/01/22 02:44:05;;;;;;;0.10;0.10;;;;;;;;;;5068162;28;20658;-68
2022/01/22 02:46:33;;;;;;;0.10;0.10;;;;;;;;;;5066257;28;20633;-67
2022/01/22 02:49:00;;;;;;;0.10;0.10;;;;;;;;;;5070834;28;20619;-67
2022/01/22 02:51:29;;;;;;;0.10;0.10;;;;;;;;;;5065685;28;20628;-67
2022/01/22 02:54:02;;;;;;;0.10;0.10;;;;;;;;;;5070589;28;20660;-67
2022/01/22 02:56:30;;;;;;;0.10;0.10;;;;;;;;;;5064871;28;20668;-67
2022/01/22 02:58:59;;;;;;;0.10;0.10;;;;;;;;;;5069457;28;21014;-67
2022/01/22 03:01:26;;;;;;;0.10;0.10;;;;;;;;;;5065148;28;20630;-67
2022/01/22 03:03:55;;;;;;;0.10;0.10;;;;;;;;;;5067617;28;20652;-67
2022/01/22 03:06:23;;;;;;;0.10;0.10;;;;;;;;;;5063823;28;20763;-67
2022/01/22 03:08:50;;;;;;;0.10;0.10;;;;;;;;;;5069893;28;20651;-67
2022/01/22 03:11:23;;;;;;;0.10;0.10;;;;;;;;;;5066835;28;20651;-67
2022/01/22 03:16:58;;;;;;;0.10;0.10;;;;;;;;;;5069816;28;20617;-67
2022/01/22 03:19:56;;;;;;;0.10;0.10;;;;;;;;;;5064661;28;20637;-68
2022/01/22 03:22:28;;;;;;;0.10;0.10;;;;;;;;;;5063309;28;20636;-67
2022/01/22 03:27:43;;;;;;;0.10;0.10;;;;;;;;;;5071031;28;20690;-69
2022/01/22 03:30:11;;;;;;;0.10;0.10;;;;;;;;;;5068706;28;20983;-67
2022/01/22 03:32:39;;;;;;;0.00;0.00;;;;;;;;;;5069631;28;20656;-69
2022/01/22 03:35:13;;;;;;;0.10;0.10;;;;;;;;;;5067831;28;20664;-67
2022/01/22 03:37:41;;;;;;;0.10;0.10;;;;;;;;;;5067481;28;21254;-68
2022/01/22 03:40:09;;;;;;;0.10;0.10;;;;;;;;;;5066747;28;20626;-68
2022/01/22 03:42:37;;;;;;;0.10;0.10;;;;;;;;;;5068926;28;20653;-67
2022/01/22 03:45:07;;;;;;;0.10;0.10;;;;;;;;;;5066999;28;20666;-68
2022/01/22 03:47:35;;;;;;;0.10;0.10;;;;;;;;;;5065115;28;20629;-67
2022/01/22 03:50:04;;;;;;;0.00;0.00;;;;;;;;;;5065520;28;21181;-67
2022/01/22 03:52:31;;;;;;;0.10;0.10;;;;;;;;;;5062645;28;20679;-67
2022/01/22 03:54:59;;;;;;;0.10;0.10;;;;;;;;;;5065223;28;20735;-68
2022/01/22 03:57:45;;;;;;;0.10;0.10;;;;;;;;;;5062162;28;20633;-69
2022/01/22 04:00:17;;;;;;;0.00;0.00;;;;;;;;;;5065368;28;20956;-67
2022/01/22 04:03:24;;;;;;;0.10;0.10;;;;;;;;;;5065344;28;20659;-67
2022/01/22 04:06:05;;;;;;;0.10;0.10;;;;;;;;;;5064685;28;20609;-67
2022/01/22 04:08:32;;;;;;;0.10;0.10;;;;;;;;;;5061744;28;20629;-69
2022/01/22 04:10:59;;;;;;;0.10;0.10;;;;;;;;;;5065854;28;20600;-68
2022/01/22 04:13:32;;;;;;;0.10;0.10;;;;;;;;;;5069410;28;20675;-67
2022/01/22 04:16:01;;;;;;;0.10;0.10;;;;;;;;;;5071917;28;20665;-69
2022/01/22 04:26:55;;;;;;;0.10;0.10;;;;;;;;;;5057817;28;20649;-68
2022/01/22 04:29:23;;;;;;;0.10;0.10;;;;;;;;;;5067330;28;20993;-67
2022/01/22 04:31:52;;;;;;;0.10;0.10;;;;;;;;;;5072336;28;20638;-67
2022/01/22 04:34:19;;;;;;;0.10;0.10;;;;;;;;;;5065732;28;21276;-68
2022/01/22 04:36:47;;;;;;;0.10;0.10;;;;;;;;;;5061529;28;20632;-68
2022/01/22 04:39:14;;;;;;;0.10;0.10;;;;;;;;;;5057725;28;20633;-69
2022/01/22 04:41:42;;;;;;;0.10;0.10;;;;;;;;;;5063584;28;20643;-67
2022/01/22 04:44:09;;;;;;;0.10;0.10;;;;;;;;;;5063992;28;20732;-68
2022/01/22 04:46:51;;;;;;;0.10;0.10;;;;;;;;;;5058669;28;20617;-67
2022/01/22 04:55:00;;;;;;;0.10;0.10;;;;;;;;;;5059404;28;20659;-70
2022/01/22 04:57:32;;;;;;;0.10;0.10;;;;;;;;;;5058788;28;20612;-67
2022/01/22 04:59:59;;;;;;;0.10;0.10;;;;;;;;;;5071292;28;20750;-68
2022/01/22 05:02:27;;;;;;;0.10;0.10;;;;;;;;;;5066402;28;20657;-67
2022/01/22 05:05:05;;;;;;;0.10;0.10;;;;;;;;;;5068826;28;20696;-68
2022/01/22 05:07:50;;;;;;;0.10;0.10;;;;;;;;;;5065924;28;20628;-68
2022/01/22 05:10:23;;;;;;;0.10;0.10;;;;;;;;;;5061620;28;20597;-67
2022/01/22 05:12:52;;;;;;;0.10;0.10;;;;;;;;;;5066434;28;20703;-68
2022/01/22 05:15:20;;;;;;;0.10;0.10;;;;;;;;;;5059936;28;20652;-68
2022/01/22 05:17:48;;;;;;;0.10;0.10;;;;;;;;;;5068176;28;20675;-68
2022/01/22 05:20:26;;;;;;;0.10;0.10;;;;;;;;;;5066490;28;20732;-68
2022/01/22 05:22:57;;;;;;;0.10;0.10;;;;;;;;;;5060289;28;20659;-68
2022/01/22 05:25:29;;;;;;;0.10;0.10;;;;;;;;;;5061937;28;20613;-69
2022/01/22 05:28:16;;;;;;;0.10;0.10;;;;;;;;;;5062940;28;20629;-67
2022/01/22 05:31:32;;;;;;;0.10;0.10;;;;;;;;;;5065887;28;20636;-69
2022/01/22 05:37:11;;;;;;;0.10;0.10;;;;;;;;;;5036086;28;20615;-68
2022/01/22 05:39:38;;;;;;;0.10;0.10;;;;;;;;;;5058844;28;20617;-69
2022/01/22 05:42:09;;;;;;;0.10;0.10;;;;;;;;;;5067995;28;20659;-68
2022/01/22 05:44:36;;;;;;;0.10;0.10;;;;;;;;;;5065012;28;20724;-68
2022/01/22 05:47:05;;;;;;;0.10;0.10;;;;;;;;;;5063768;28;20687;-68
2022/01/22 05:49:38;;;;;;;0.10;0.10;;;;;;;;;;5068681;28;20599;-67
2022/01/22 05:52:08;;;;;;;0.10;0.10;;;;;;;;;;5059403;28;20753;-67
2022/01/22 05:54:57;;;;;;;0.10;0.10;;;;;;;;;;5070173;28;20649;-67
2022/01/22 06:00:19;;;;;;;0.10;0.10;;;;;;;;;;5061148;28;20623;-68
2022/01/22 06:02:47;;;;;;;0.10;0.10;;;;;;;;;;5071129;28;20649;-67
2022/01/22 06:05:18;;;;;;;0.10;0.10;;;;;;;;;;5070399;28;20664;-67
2022/01/22 06:07:46;;;;;;;0.10;0.10;;;;;;;;;;5070175;28;21212;-67
2022/01/22 06:10:18;;;;;;;0.10;0.10;;;;;;;;;;5067702;28;20623;-67
2022/01/22 06:12:58;;;;;;;0.00;0.00;;;;;;;;;;5072462;28;20656;-67
2022/01/22 06:15:28;;;;;;;0.10;0.10;;;;;;;;;;5060869;28;20665;-67
2022/01/22 06:18:18;;;;;;;0.10;0.10;;;;;;;;;;5060733;28;20643;-69
2022/01/22 06:20:47;;;;;;;0.10;0.10;;;;;;;;;;5071212;28;20662;-68
2022/01/22 06:23:15;;;;;;;0.10;0.10;;;;;;;;;;5063730;28;20662;-67
2022/01/22 06:25:43;;;;;;;0.10;0.10;;;;;;;;;;5065852;28;20621;-69
2022/01/22 06:28:12;;;;;;;0.10;0.10;;;;;;;;;;5068401;28;20631;-71
2022/01/22 06:30:40;;;;;;;0.10;0.10;;;;;;;;;;5069438;28;20727;-67
2022/01/22 06:33:07;;;;;;;0.10;0.10;;;;;;;;;;5071774;28;21278;-69
2022/01/22 06:35:35;;;;;;;0.07;0.07;;;;;;;;;;5066967;28;20652;-68
2022/01/22 06:38:05;;;;;;;0.10;0.10;;;;;;;;;;5067022;28;20626;-68
2022/01/22 06:44:08;;;;;;;0.10;0.10;;;;;;;;;;5068760;28;20650;-67
2022/01/22 06:46:43;;;;;;;0.10;0.10;;;;;;;;;;5064154;28;20628;-67
2022/01/22 06:49:29;;;;;;;0.10;0.10;;;;;;;;;;5065211;28;20628;-68
2022/01/22 06:52:18;;;;;;;0.10;0.10;;;;;;;;;;5067995;28;20670;-68
2022/01/22 06:54:46;;;;;;;0.10;0.10;;;;;;;;;;5064938;28;20695;-68
2022/01/22 06:57:15;;;;;;;0.10;0.10;;;;;;;;;;5067706;28;20652;-69
2022/01/22 06:59:43;;;;;;;0.10;0.10;;;;;;;;;;5071114;28;20663;-67
2022/01/22 07:02:11;;;;;;;0.10;0.10;;;;;;;;;;5068658;28;20781;-68
2022/01/22 07:04:39;;;;;;;0.10;0.10;;;;;;;;;;5069417;28;20615;-68
2022/01/22 07:07:20;;;;;;;0.10;0.10;;;;;;;;;;5064031;28;20636;-70
2022/01/22 07:09:48;;;;;;;0.10;0.10;;;;;;;;;;5065343;28;20620;-68
2022/01/22 07:12:18;;;;;;;0.10;0.10;;;;;;;;;;5069618;28;20764;-69
2022/01/22 07:14:49;;;;;;;0.10;0.10;;;;;;;;;;5065673;28;20761;-70
2022/01/22 07:17:18;;;;;;;0.10;0.10;;;;;;;;;;5065785;28;20719;-68
2022/01/22 07:19:52;;;;;;;0.10;0.10;;;;;;;;;;5068537;28;20713;-69
2022/01/22 07:22:36;;;;;;;0.10;0.10;;;;;;;;;;5065769;28;20660;-70
2022/01/22 07:25:38;;;;;;;0.10;0.10;;;;;;;;;;5065809;28;20702;-69
2022/01/22 07:28:21;;;;;;;0.10;0.10;;;;;;;;;;5063835;28;20608;-69
2022/01/22 07:30:49;;;;;;;0.10;0.10;;;;;;;;;;5069440;28;20719;-69
2022/01/22 07:33:20;;;;;;;0.10;0.10;;;;;;;;;;5065175;28;20648;-69
2022/01/22 07:35:47;;;;;;;0.10;0.10;;;;;;;;;;5065682;28;20684;-69
2022/01/22 07:38:14;;;;;;;0.10;0.10;;;;;;;;;;5064107;28;20617;-72
2022/01/22 07:40:42;;;;;;;0.10;0.10;;;;;;;;;;5065851;28;20716;-68
2022/01/22 07:43:26;;;;;;;0.10;0.10;;;;;;;;;;5065320;28;20692;-70
2022/01/22 07:46:12;;;;;;;0.10;0.10;;;;;;;;;;5066781;28;20595;-68
2022/01/22 07:48:49;;;;;;;0.10;0.10;;;;;;;;;;5062515;28;20633;-67
2022/01/22 07:51:43;;;;;;;0.10;0.10;;;;;;;;;;5067347;28;20614;-67
2022/01/22 07:54:11;;;;;;;0.10;0.10;;;;;;;;;;5067956;28;20624;-67
2022/01/22 07:56:38;;;;;;;0.10;0.10;;;;;;;;;;5058774;28;20617;-68
2022/01/22 07:59:07;;;;;;;0.10;0.10;;;;;;;;;;5063893;28;20613;-69
2022/01/22 08:01:38;;;;;;;0.10;0.10;;;;;;;;;;5060048;28;20686;-71
2022/01/22 08:04:24;;;;;;;0.10;0.10;;;;;;;;;;5064731;28;20622;-69
2022/01/22 08:07:11;;;;;;;0.10;0.10;;;;;;;;;;5066698;28;20753;-68
2022/01/22 08:10:17;;;;;;;0.10;0.10;;;;;;;;;;5064466;28;20611;-68
2022/01/22 08:12:50;;;;;;;0.10;0.10;;;;;;;;;;5068965;28;21235;-68
2022/01/22 08:15:20;;;;;;;0.10;0.10;;;;;;;;;;5067275;28;20649;-68
2022/01/22 08:17:48;;;;;;;0.10;0.10;;;;;;;;;;5061342;28;20628;-69
2022/01/22 08:20:20;;;;;;;0.10;0.10;;;;;;;;;;5065339;28;21208;-68
2022/01/22 08:22:51;;;;;;;0.10;0.10;;;;;;;;;;5071303;28;20660;-67
2022/01/22 08:25:40;;;;;;;0.10;0.10;;;;;;;;;;5066366;28;20677;-68
2022/01/22 08:28:57;;;;;;;0.10;0.10;;;;;;;;;;5065593;28;20611;-68
2022/01/22 08:31:39;;;;;;;0.10;0.10;;;;;;;;;;5073683;28;20628;-67
2022/01/22 08:36:55;;;;;;;0.10;0.10;;;;;;;;;;5068531;28;20609;-67
2022/01/22 08:39:23;;;;;;;0.10;0.10;;;;;;;;;;5063873;28;20678;-69
2022/01/22 08:41:52;;;;;;;0.10;0.10;;;;;;;;;;5067441;28;20732;-69
2022/01/22 08:44:19;;;;;;;0.10;0.10;;;;;;;;;;5061242;28;20620;-68
2022/01/22 08:46:48;;;;;;;0.10;0.10;;;;;;;;;;5068946;28;20647;-68
2022/01/22 08:49:16;;;;;;;0.10;0.10;;;;;;;;;;5067662;28;20621;-67
2022/01/22 08:51:55;;;;;;;0.10;0.10;;;;;;;;;;5066007;28;20609;-67
2022/01/22 08:54:23;;;;;;;0.10;0.10;;;;;;;;;;5061095;28;20617;-67
2022/01/22 08:56:52;;;;;;;0.10;0.10;;;;;;;;;;5067527;28;20660;-67
2022/01/22 08:59:19;;;;;;;0.10;0.10;;;;;;;;;;5066943;28;20613;-67
2022/01/22 09:01:51;;;;;;;0.10;0.10;;;;;;;;;;5068979;28;20650;-68
2022/01/22 09:04:35;;;;;;;0.10;0.10;;;;;;;;;;5068467;28;20717;-68
2022/01/22 09:07:25;;;;;;;0.10;0.10;;;;;;;;;;5065311;28;20640;-68
2022/01/22 09:10:12;;;;;;;0.10;0.10;;;;;;;;;;5061322;28;20613;-67
2022/01/22 09:12:40;;;;;;;0.10;0.10;;;;;;;;;;5067578;28;21142;-66
2022/01/22 09:15:26;;;;;;;0.10;0.10;;;;;;;;;;5056095;28;20710;-68
2022/01/22 09:17:55;;;;;;;0.10;0.10;;;;;;;;;;5058358;28;20613;-70
2022/01/22 09:20:44;;;;;;;0.10;0.10;;;;;;;;;;5061624;28;20624;-67
2022/01/22 09:23:15;;;;;;;0.10;0.10;;;;;;;;;;5058741;28;20667;-68
2022/01/22 09:25:43;;;;;;;0.10;0.10;;;;;;;;;;5064487;28;20675;-67
2022/01/22 09:28:13;;;;;;;0.10;0.10;;;;;;;;;;5064737;28;20628;-69
2022/01/22 09:30:43;;;;;;;0.10;0.10;;;;;;;;;;5068299;28;20690;-69
2022/01/22 09:33:12;;;;;;;0.10;0.10;;;;;;;;;;5069388;28;20713;-67
2022/01/22 09:35:59;;;;;;;0.10;0.10;;;;;;;;;;5065460;28;20669;-69
2022/01/22 09:38:45;;;;;;;0.10;0.10;;;;;;;;;;5046780;28;20615;-68
2022/01/22 09:41:35;;;;;;;0.10;0.10;;;;;;;;;;5047665;28;20619;-67
2022/01/22 09:44:33;;;;;;;0.10;0.10;;;;;;;;;;5039295;28;20783;-67
2022/01/22 09:47:26;;;;;;;0.10;0.10;;;;;;;;;;5048829;28;20760;-67
2022/01/22 09:50:19;;;;;;;0.10;0.10;;;;;;;;;;5047638;28;20612;-70
2022/01/22 09:53:09;;;;;;;0.10;0.10;;;;;;;;;;5044959;28;20639;-69
2022/01/22 09:56:04;;;;;;;0.10;0.10;;;;;;;;;;5050507;28;20654;-69
2022/01/22 09:58:41;;;;;;;0.10;0.10;;;;;;;;;;5047015;28;20624;-72
2022/01/22 10:01:35;;;;;;;0.10;0.10;;;;;;;;;;5048701;28;20613;-70
2022/01/22 10:04:15;;;;;;;0.10;0.10;;;;;;;;;;5047913;28;20669;-69
2022/01/22 10:07:02;;;;;;;0.10;0.10;;;;;;;;;;5047620;28;20609;-70
2022/01/22 10:09:36;;;;;;;0.10;0.10;;;;;;;;;;5050018;28;20664;-69
2022/01/22 10:12:44;;;;;;;0.10;0.10;;;5.80;99.90;;;;;;5073849;28;20675;-70
2022/01/22 10:15:23;;;;;;;0.10;0.10;;;6.40;99.90;;;;;;5061347;28;20725;-70
2022/01/22 10:17:52;;;;;;;0.10;0.10;;;6.50;99.90;;;;;;5056695;28;20649;-70
2022/01/22 10:20:30;;;;;;;0.10;0.10;;;6.50;99.90;;;;;;5058371;28;20621;-69
2022/01/22 10:23:01;;;;;;;0.10;0.10;;;6.50;99.90;;;;;;5059407;28;20691;-72
2022/01/22 10:25:33;;;;;;;0.10;0.10;;;6.50;99.90;;;;;;5061643;28;20970;-69
2022/01/22 10:28:01;;;;;;;0.00;0.00;;;6.60;99.90;;;;;;5062414;28;20623;-69
2022/01/22 10:30:35;;;;;;;0.10;0.10;;;6.60;99.90;;;;;;5059451;28;20626;-69
2022/01/22 10:33:19;;;;;;;0.10;0.10;;;6.60;99.90;;;;;;5069382;28;20738;-69
2022/01/22 10:36:15;;;;;;;0.00;0.00;;;6.60;99.90;;;;;;5064923;28;20683;-69
2022/01/22 10:39:06;;;;;;;0.10;0.10;;;6.60;99.90;;;;;;5065357;28;20602;-69
2022/01/22 10:41:35;;;;;;;0.10;0.10;;;6.60;99.90;;;;;;5069128;28;20656;-69
2022/01/22 10:44:03;;;;;;;0.10;0.10;;;6.60;99.90;;;;;;5077950;28;20666;-69
2022/01/22 10:46:43;;;;;;;0.10;0.10;;;6.70;99.90;;;;;;5065638;28;20691;-69
2022/01/22 10:49:12;;;;;;;0.17;0.17;;;6.70;99.90;;;;;;5067651;28;21179;-69
2022/01/22 10:51:50;;;;;;;0.00;0.00;;;6.70;99.90;;;;;;5069036;28;20658;-70
2022/01/22 10:54:21;;;;;;;0.10;0.10;;;6.70;99.90;;;;;;5066020;28;20619;-69
2022/01/22 10:56:51;;;;;;;0.10;0.10;;;6.70;99.90;;;;;;5068035;28;20656;-70
2022/01/22 10:59:19;;;;;;;0.10;0.10;;;6.70;99.90;;;;;;5067448;28;20629;-69
2022/01/22 11:01:52;;;;;;;0.10;0.10;;;6.80;99.90;;;;;;5070719;28;20619;-69
2022/01/22 11:04:21;;;;;;;0.10;0.10;;;6.80;99.90;;;;;;5057657;28;20615;-71
2022/01/22 11:06:52;;;;;;;0.10;0.10;;;6.90;99.90;;;;;;5068073;28;20597;-68
2022/01/22 11:09:21;;;;;;;0.10;0.10;;;6.90;99.90;;;;;;5059779;28;20685;-69
2022/01/22 11:11:49;;;;;;;0.10;0.10;;;6.90;99.90;;;;;;5056453;28;20633;-69
2022/01/22 11:14:17;;;;;;;0.10;0.10;;;;;;;;;;5068761;28;20608;-68
2022/01/22 11:16:51;;;;;;;0.10;0.10;;;7.00;99.90;;;;;;5065591;28;20656;-69
2022/01/22 11:19:19;;;;;;;0.10;0.10;;;7.00;99.90;;;;;;5060164;28;20627;-69
2022/01/22 11:21:48;;;;;;;0.10;0.10;;;7.00;99.90;;;;;;5051684;28;20621;-68
2022/01/22 11:24:18;;;;;;;0.10;0.10;;;7.00;99.90;;;;;;5053108;28;20617;-69
2022/01/22 11:26:52;;;;;;;0.10;0.10;;;7.00;99.90;;;;;;5053153;28;20708;-69
2022/01/22 11:29:25;;;;;;;0.10;0.10;;;7.10;99.90;;;;;;5050950;28;20719;-70
2022/01/22 11:31:54;;;;;;;0.10;0.10;;;7.10;99.90;;;;;;5063775;28;20640;-69
2022/01/22 11:34:23;;;;;;;0.10;0.10;;;;;;;;;;5067592;28;20640;-69
2022/01/22 11:36:58;;;;;;;0.10;0.10;;;7.20;99.90;;;;;;5068711;28;20680;-69
2022/01/22 11:39:26;;;;;;;0.00;0.00;;;7.30;99.90;;;;;;5064389;28;20627;-70
2022/01/22 11:41:57;;;;;;;0.10;0.10;;;7.30;99.90;;;;;;5071410;28;20632;-70
2022/01/22 11:44:26;;;;;;;0.10;0.10;;;7.30;99.90;;;;;;5064459;28;20629;-69
2022/01/22 11:47:08;;;;;;;0.10;0.10;;;7.30;99.90;;;;;;5073418;28;20613;-71
2022/01/22 11:49:36;;;;;;;0.10;0.10;;;7.30;99.90;;;;;;5063320;28;20633;-68
2022/01/22 11:52:24;;;;;;;0.10;0.10;;;7.30;99.90;;;;;;5064921;28;20718;-68
2022/01/22 11:54:54;;;;;;;0.10;0.10;;;7.30;99.90;;;;;;5059245;28;20631;-68
2022/01/22 11:57:26;;;;;;;0.10;0.10;;;7.30;99.90;;;;;;5066276;28;21223;-69
2022/01/22 12:00:15;;;;;;;0.10;0.10;;;7.30;99.90;;;;;;5071841;28;20663;-69
2022/01/22 12:02:42;;;;;;;0.10;0.10;;;7.30;99.90;;;;;;5063150;28;20679;-69
2022/01/22 12:05:09;;;;;;;0.10;0.10;;;7.30;99.90;;;;;;5060057;28;20619;-70
2022/01/22 12:07:36;;;;;;;0.00;0.00;;;7.30;99.90;;;;;;5053247;28;20633;-69
2022/01/22 12:16:08;;;;;;;0.00;0.00;;;7.30;99.90;;;;;;5060437;28;20640;-70
2022/01/22 12:18:38;;;;;;;0.10;0.10;;;7.30;99.90;;;;;;5061992;28;20682;-70
2022/01/22 12:23:54;;;;;;;0.10;0.10;;;7.20;99.90;;;;;;5047446;28;20652;-69
2022/01/22 12:26:42;;;;;;;0.10;0.10;;;7.10;99.90;;;;;;5058435;28;20654;-69
2022/01/22 12:29:31;;;;;;;0.10;0.10;;;7.20;99.90;;;;;;5065141;28;20630;-69
2022/01/22 12:32:09;;;;;;;0.10;0.10;;;7.20;99.90;;;;;;5067624;28;20636;-69
2022/01/22 12:35:00;;;;;;;0.10;0.10;;;7.20;99.90;;;;;;5066181;28;20636;-70
2022/01/22 12:37:30;;;;;;;0.10;0.10;;;7.20;99.90;;;;;;5063953;28;20753;-71
2022/01/22 12:40:04;;;;;;;0.10;0.10;;;7.20;99.90;;;;;;5062434;28;20660;-69
2022/01/22 12:42:52;;;;;;;0.10;0.10;;;7.20;99.90;;;;;;5067931;28;20680;-71
2022/01/22 12:45:22;;;;;;;0.10;0.10;;;;;;;;;;5062098;28;20633;-70
2022/01/22 12:47:50;;;;;;;0.10;0.10;;;;;;;;;;5061644;28;20618;-71
2022/01/22 12:50:24;;;;;;;0.10;0.10;;;;;;;;;;5068919;28;20625;-70
2022/01/22 12:52:52;;;;;;;0.10;0.10;;;7.20;99.90;;;;;;5065086;28;20709;-69
2022/01/22 12:55:20;;;;;;;0.10;0.10;;;;;;;;;;5056018;28;20732;-70
2022/01/22 12:57:48;;;;;;;0.10;0.10;;;;;;;;;;5062738;28;20652;-71
2022/01/22 13:00:17;;;;;;;0.10;0.10;;;;;;;;;;5069799;28;20613;-70
2022/01/22 13:02:46;;;;;;;0.10;0.10;;;;;;;;;;5065304;28;20654;-73
2022/01/22 13:05:15;;;;;;;0.10;0.10;;;;;;;;;;5069409;28;20919;-69
2022/01/22 13:08:07;;;;;;;0.10;0.10;;;;;;;;;;5062866;28;20681;-70
2022/01/22 13:10:54;;;;;;;0.10;0.10;;;;;;;;;;5070110;28;20608;-70
2022/01/22 13:13:21;;;;;;;0.10;0.10;;;;;;;;;;5061903;28;21256;-71
2022/01/22 13:15:48;;;;;;;0.10;0.10;;;;;;;;;;5062996;28;20995;-69
2022/01/22 13:18:17;;;;;;;0.10;0.10;;;;;;;;;;5066955;28;20680;-70
2022/01/22 13:20:46;;;;;;;0.10;0.10;;;;;;;;;;5067694;28;20632;-70
2022/01/22 13:23:14;;;;;;;0.10;0.10;;;;;;;;;;5062281;28;20692;-71
2022/01/22 13:25:42;;;;;;;0.10;0.10;;;;;;;;;;5066466;28;20613;-72
2022/01/22 13:28:11;;;;;;;0.10;0.10;;;;;;;;;;5064470;28;20616;-71
2022/01/22 13:30:47;;;;;;;0.10;0.10;;;;;;;;;;5066312;28;20656;-71
2022/01/22 13:33:19;;;;;;;0.07;0.07;;;;;;;;;;5065231;28;20660;-70
2022/01/22 13:35:58;;;;;;;0.00;0.00;;;;;;;;;;5063830;28;20613;-71
2022/01/22 13:38:51;;;;;;;0.10;0.10;;;;;;;;;;5056925;28;20618;-70
2022/01/22 13:49:33;;;;;;;0.10;0.10;;;;;;;;;;5064465;28;20670;-73
2022/01/22 13:52:03;;;;;;;0.10;0.10;;;;;;;;;;5069429;28;20619;-71
2022/01/22 13:54:32;;;;;;;0.10;0.10;;;;;;;;;;5062859;28;20711;-70
2022/01/22 13:57:03;;;;;;;0.10;0.10;;;;;;;;;;5063664;28;20687;-70
2022/01/22 13:59:31;;;;;;;0.10;0.10;;;;;;;;;;5064328;28;20625;-70
2022/01/22 14:02:07;;;;;;;0.10;0.10;;;;;;;;;;5067924;28;20600;-70
2022/01/22 14:04:39;;;;;;;0.07;0.07;;;;;;;;;;5067288;28;20960;-70
2022/01/22 14:07:14;;;;;;;0.10;0.10;;;;;;;;;;5064986;28;20601;-72
2022/01/22 14:09:51;;;;;;;0.10;0.10;;;;;;;;;;5066584;28;20623;-70
2022/01/22 14:12:18;;;;;;;0.10;0.10;;;;;;;;;;5059836;28;20656;-71
2022/01/22 14:15:03;;;;;;;0.10;0.10;;;;;;;;;;5064313;28;21266;-70
2022/01/22 14:17:37;;;;;;;0.10;0.10;;;;;;;;;;5069385;28;20648;-71
2022/01/22 14:20:07;;;;;;;0.00;0.00;;;;;;;;;;5069512;28;20655;-70
2022/01/22 14:22:54;;;;;;;0.10;0.10;;;;;;;;;;5066088;28;20759;-71
2022/01/22 14:25:22;;;;;;;0.10;0.10;;;;;;;;;;5065800;28;20660;-71
2022/01/22 14:27:59;;;;;;;0.10;0.10;;;;;;;;;;5069196;28;20682;-70
2022/01/22 14:30:34;;;;;;;0.10;0.10;;;;;;;;;;5069631;28;21227;-71
2022/01/22 14:33:02;;;;;;;0.10;0.10;;;;;;;;;;5071082;28;20659;-71
2022/01/22 14:35:29;;;;;;;0.10;0.10;;;;;;;;;;5062233;28;20724;-70
2022/01/22 14:38:06;;;;;;;0.10;0.10;;;;;;;;;;5066416;28;20656;-71
2022/01/22 14:46:04;;;;;;;0.10;0.10;;;;;;;;;;5067186;28;20596;-70
2022/01/22 14:48:31;;;;;;;0.10;0.10;;;;;;;;;;5065356;28;20622;-70
2022/01/22 14:50:58;;;;;;;0.10;0.10;;;;;;;;;;5072524;28;20629;-71
2022/01/22 14:53:26;;;;;;;0.10;0.10;;;;;;;;;;5068297;28;20659;-71
2022/01/22 14:55:58;;;;;;;0.10;0.10;;;;;;;;;;5068260;28;20670;-72
2022/01/22 14:58:25;;;;;;;0.00;0.00;;;;;;;;;;5065626;28;20748;-71
2022/01/22 15:00:53;;;;;;;0.00;0.00;;;;;;;;;;5068992;28;20674;-71
2022/01/22 15:03:20;;;;;;;0.10;0.10;;;;;;;;;;5070603;28;20636;-71
2022/01/22 15:05:48;;;;;;;0.00;0.00;;;;;;;;;;5071580;28;20768;-70
2022/01/22 15:08:15;;;;;;;0.10;0.10;;;;;;;;;;5067699;28;20624;-71
2022/01/22 15:10:44;;;;;;;0.10;0.10;;;;;;;;;;5069452;28;20620;-71
2022/01/22 15:13:12;;;;;;;0.10;0.10;;;;;;;;;;5071474;28;20639;-72
2022/01/22 15:15:45;;;;;;;0.10;0.10;;;;;;;;;;5071188;28;20631;-71
2022/01/22 15:18:25;;;;;;;0.10;0.10;;;;;;;;;;5067650;28;20653;-70
2022/01/22 15:20:52;;;;;;;0.00;0.00;;;;;;;;;;5072725;28;20639;-71
2022/01/22 15:23:20;;;;;;;0.10;0.10;;;;;;;;;;5063314;28;20652;-71
2022/01/22 15:25:48;;;;;;;0.10;0.10;;;;;;;;;;5062346;28;20623;-71
2022/01/22 15:28:16;;;;;;;0.00;0.00;;;;;;;;;;5066183;28;20614;-72
2022/01/22 15:30:50;;;;;;;0.00;0.00;;;;;;;;;;5071541;28;20613;-70
2022/01/22 15:33:21;;;;;;;0.10;0.10;;;;;;;;;;5069912;28;20664;-72
2022/01/22 15:35:48;;;;;;;0.10;0.10;;;;;;;;;;5066787;28;20621;-71
2022/01/22 15:38:15;;;;;;;0.10;0.10;;;;;;;;;;5064103;28;20755;-72
2022/01/22 15:40:43;;;;;;;0.10;0.10;;;;;;;;;;5065370;28;20686;-71
2022/01/22 15:43:12;;;;;;;0.10;0.10;;;;;;;;;;5069922;28;20656;-72
2022/01/22 15:45:39;;;;;;;0.10;0.10;;;;;;;;;;5066638;28;20627;-72
2022/01/22 15:48:07;;;;;;;0.10;0.10;;;;;;;;;;5065776;28;20609;-73
2022/01/22 15:50:35;;;;;;;0.03;0.03;;;;;;;;;;5070484;28;20702;-72
2022/01/22 15:53:02;;;;;;;0.10;0.10;;;;;;;;;;5071602;28;20651;-72
2022/01/22 15:55:30;;;;;;;0.10;0.10;;;;;;;;;;5061656;28;20644;-73
2022/01/22 15:57:57;;;;;;;0.10;0.10;;;;;;;;;;5068423;28;20657;-73
2022/01/22 16:00:27;;;;;;;0.10;0.10;;;;;;;;;;5072166;28;20692;-71
2022/01/22 16:02:56;;;;;;;0.10;0.10;;;;;;;;;;5069480;28;21300;-72
2022/01/22 16:05:25;;;;;;;0.10;0.10;;;;;;;;;;5067602;28;20636;-72